createdAt,value
2023-03-08T00:01:24.978Z,4.20
2023-03-08T00:07:13.471Z,4.30
2023-03-08T00:09:59.347Z,4.20
2023-03-08T00:12:44.763Z,4.17
2023-03-08T00:15:29.933Z,3.93
2023-03-08T00:18:15.587Z,3.73
2023-03-08T00:21:03.635Z,3.60
2023-03-08T00:23:52.299Z,3.73
2023-03-08T00:26:37.833Z,3.33
2023-03-08T00:29:23.522Z,3.70
2023-03-08T00:32:08.617Z,3.80
2023-03-08T00:34:54.530Z,3.90
2023-03-08T00:37:39.705Z,3.50
2023-03-08T00:40:25.333Z,3.70
2023-03-08T00:43:10.754Z,3.80
2023-03-08T00:45:56.649Z,4.00
2023-03-08T00:48:42.476Z,4.03
2023-03-08T00:51:29.123Z,4.93
2023-03-08T00:54:14.816Z,5.33
2023-03-08T00:57:00.218Z,5.73
2023-03-08T00:59:45.431Z,5.67
2023-03-08T01:02:32.318Z,5.47
2023-03-08T01:05:17.884Z,5.50
2023-03-08T01:08:03.228Z,5.47
2023-03-08T01:10:58.862Z,5.37
2023-03-08T01:13:44.231Z,5.63
2023-03-08T01:16:31.275Z,5.20
2023-03-08T01:19:17.777Z,5.30
2023-03-08T01:22:03.280Z,5.67
2023-03-08T01:24:49.980Z,5.60
2023-03-08T01:27:35.438Z,5.77
2023-03-08T01:30:21.498Z,5.40
2023-03-08T01:33:06.866Z,5.37
2023-03-08T01:35:52.698Z,5.07
2023-03-08T01:38:38.894Z,5.30
2023-03-08T01:41:30.271Z,5.30
2023-03-08T01:44:18.185Z,5.40
2023-03-08T01:47:04.381Z,5.30
2023-03-08T01:50:10.962Z,5.00
2023-03-08T01:52:58.607Z,5.00
2023-03-08T01:55:44.358Z,4.27
2023-03-08T01:58:30.546Z,5.33
2023-03-08T02:01:16.024Z,4.70
2023-03-08T02:04:02.896Z,4.60
2023-03-08T02:06:49.522Z,4.70
2023-03-08T02:09:39.585Z,4.90
2023-03-08T02:12:26.154Z,4.87
2023-03-08T02:15:17.296Z,5.30
2023-03-08T02:18:07.332Z,4.80
2023-03-08T02:20:52.549Z,5.27
2023-03-08T02:23:38.101Z,5.50
2023-03-08T02:26:23.740Z,5.20
2023-03-08T02:29:08.917Z,5.30
2023-03-08T02:31:54.375Z,5.50
2023-03-08T02:34:39.611Z,5.30
2023-03-08T02:37:24.956Z,5.57
2023-03-08T02:40:11.269Z,5.77
2023-03-08T02:42:56.693Z,5.50
2023-03-08T02:45:42.158Z,5.23
2023-03-08T02:48:27.358Z,5.70
2023-03-08T02:51:12.763Z,5.50
2023-03-08T02:53:58.492Z,5.80
2023-03-08T02:56:43.847Z,6.73
2023-03-08T02:59:30.864Z,5.80
2023-03-08T03:02:17.189Z,5.83
2023-03-08T03:05:05.021Z,6.23
2023-03-08T03:07:50.495Z,5.53
2023-03-08T03:13:23.781Z,5.97
2023-03-08T03:16:13.214Z,5.43
2023-03-08T03:18:58.660Z,5.53
2023-03-08T03:21:44.171Z,5.67
2023-03-08T03:24:29.487Z,5.53
2023-03-08T03:27:18.802Z,5.90
2023-03-08T03:30:05.931Z,5.40
2023-03-08T03:32:51.183Z,5.70
2023-03-08T03:35:42.088Z,5.83
2023-03-08T03:38:29.024Z,5.60
2023-03-08T03:41:18.126Z,5.93
2023-03-08T03:44:03.977Z,5.13
2023-03-08T03:46:49.128Z,5.03
2023-03-08T03:49:40.159Z,5.83
2023-03-08T03:52:26.230Z,5.83
2023-03-08T03:55:18.140Z,5.60
2023-03-08T03:58:03.998Z,5.77
2023-03-08T04:00:50.684Z,5.80
2023-03-08T04:03:45.688Z,6.20
2023-03-08T04:06:33.370Z,5.97
2023-03-08T04:09:19.617Z,5.47
2023-03-08T04:12:12.182Z,6.00
2023-03-08T04:14:58.222Z,5.87
2023-03-08T04:17:47.799Z,6.17
2023-03-08T04:20:33.331Z,5.97
2023-03-08T04:23:19.854Z,5.87
2023-03-08T04:26:07.679Z,5.63
2023-03-08T04:28:53.641Z,6.00
2023-03-08T04:31:39.761Z,5.87
2023-03-08T04:34:29.230Z,6.50
2023-03-08T04:37:14.672Z,6.13
2023-03-08T04:40:03.740Z,6.37
2023-03-08T04:42:51.715Z,6.43
2023-03-08T04:45:42.863Z,6.33
2023-03-08T04:48:30.932Z,6.67
2023-03-08T04:51:16.844Z,6.77
2023-03-08T04:54:03.288Z,5.90
2023-03-08T04:56:48.524Z,6.20
2023-03-08T04:59:34.526Z,5.73
2023-03-08T05:02:23.517Z,6.43
2023-03-08T05:05:09.326Z,6.37
2023-03-08T05:07:55.111Z,6.20
2023-03-08T05:10:46.449Z,6.30
2023-03-08T05:13:35.160Z,6.30
2023-03-08T05:16:20.741Z,5.30
2023-03-08T05:19:06.338Z,6.10
2023-03-08T05:21:57.385Z,5.20
2023-03-08T05:24:42.986Z,5.67
2023-03-08T05:27:33.151Z,5.17
2023-03-08T05:30:19.454Z,5.20
2023-03-08T05:33:05.652Z,5.60
2023-03-08T05:35:55.211Z,5.43
2023-03-08T05:38:42.565Z,5.43
2023-03-08T05:41:29.636Z,5.90
2023-03-08T05:44:16.536Z,5.00
2023-03-08T05:47:01.977Z,5.70
2023-03-08T05:49:47.410Z,5.90
2023-03-08T05:52:34.839Z,5.30
2023-03-08T05:55:20.888Z,5.23
2023-03-08T05:58:06.411Z,5.40
2023-03-08T06:00:53.787Z,5.60
2023-03-08T06:03:39.918Z,5.50
2023-03-08T06:06:26.615Z,5.20
2023-03-08T06:09:16.289Z,5.73
2023-03-08T06:12:02.148Z,5.30
2023-03-08T06:14:48.190Z,4.80
2023-03-08T06:17:36.749Z,5.67
2023-03-08T06:20:23.730Z,5.33
2023-03-08T06:23:10.933Z,5.27
2023-03-08T06:25:58.256Z,4.90
2023-03-08T06:28:45.078Z,4.93
2023-03-08T06:31:31.665Z,4.87
2023-03-08T06:34:19.923Z,4.70
2023-03-08T06:37:08.070Z,4.50
2023-03-08T06:39:54.072Z,4.50
2023-03-08T06:42:41.828Z,4.57
2023-03-08T06:45:32.794Z,4.57
2023-03-08T06:48:18.324Z,4.43
2023-03-08T06:51:05.491Z,3.97
2023-03-08T06:53:50.917Z,4.33
2023-03-08T06:56:39.994Z,4.60
2023-03-08T06:59:25.626Z,4.40
2023-03-08T07:02:11.108Z,4.00
2023-03-08T07:04:56.536Z,4.00
2023-03-08T07:07:43.330Z,4.60
2023-03-08T07:10:29.129Z,4.17
2023-03-08T07:13:14.326Z,4.13
2023-03-08T07:15:59.953Z,4.03
2023-03-08T07:18:45.690Z,4.30
2023-03-08T07:21:31.052Z,4.03
2023-03-08T07:24:21.811Z,4.73
2023-03-08T07:27:07.529Z,5.10
2023-03-08T07:29:54.696Z,5.77
2023-03-08T07:32:42.108Z,5.60
2023-03-08T07:35:28.010Z,5.10
2023-03-08T07:38:15.494Z,4.80
2023-03-08T07:41:00.817Z,4.27
2023-03-08T07:43:46.192Z,3.73
2023-03-08T07:46:35.660Z,4.07
2023-03-08T07:49:21.054Z,3.90
2023-03-08T07:52:06.526Z,3.90
2023-03-08T07:54:51.563Z,3.57
2023-03-08T07:57:37.558Z,3.40
2023-03-08T08:00:26.141Z,3.20
2023-03-08T08:03:11.713Z,2.97
2023-03-08T08:05:57.247Z,3.07
2023-03-08T08:08:42.675Z,2.90
2023-03-08T08:11:28.261Z,3.30
2023-03-08T08:14:13.482Z,3.00
2023-03-08T08:16:58.917Z,2.70
2023-03-08T08:19:44.392Z,2.53
2023-03-08T08:22:29.704Z,2.40
2023-03-08T08:25:14.912Z,2.20
2023-03-08T08:28:00.306Z,2.30
2023-03-08T08:30:55.992Z,2.10
2023-03-08T08:33:41.283Z,2.13
2023-03-08T08:36:27.822Z,1.87
2023-03-08T08:39:13.451Z,2.00
2023-03-08T08:41:59.021Z,1.80
2023-03-08T08:45:13.308Z,2.43
2023-03-08T08:47:59.794Z,2.40
2023-03-08T08:50:45.683Z,2.60
2023-03-08T08:53:31.419Z,2.30
2023-03-08T08:56:27.872Z,2.20
2023-03-08T08:59:17.026Z,2.13
2023-03-08T09:02:02.267Z,2.03
2023-03-08T09:04:47.936Z,2.10
2023-03-08T09:07:33.146Z,2.10
2023-03-08T09:10:18.930Z,1.90
2023-03-08T09:13:05.223Z,2.37
2023-03-08T09:15:50.441Z,2.93
2023-03-08T09:18:36.085Z,3.10
2023-03-08T09:21:21.425Z,2.67
2023-03-08T09:24:07.098Z,2.50
2023-03-08T09:26:52.219Z,1.90
2023-03-08T09:29:38.004Z,1.97
2023-03-08T09:32:23.116Z,1.80
2023-03-08T09:35:08.957Z,1.80
2023-03-08T09:37:55.628Z,1.70
2023-03-08T09:40:59.712Z,2.43
2023-03-08T09:44:19.167Z,2.13
2023-03-08T09:47:13.061Z,2.23
2023-03-08T09:50:09.041Z,2.53
2023-03-08T09:53:06.289Z,2.93
2023-03-08T09:56:02.315Z,2.87
2023-03-08T09:58:53.275Z,2.40
2023-03-08T10:01:52.069Z,2.40
2023-03-08T10:05:13.834Z,2.17
2023-03-08T10:08:09.276Z,2.30
2023-03-08T10:10:57.182Z,2.33
2023-03-08T10:13:56.604Z,2.17
2023-03-08T10:16:49.549Z,2.67
2023-03-08T10:19:43.844Z,2.80
2023-03-08T10:22:32.281Z,2.60
2023-03-08T10:25:33.026Z,2.47
2023-03-08T10:28:22.017Z,2.23
2023-03-08T10:31:42.397Z,2.60
2023-03-08T10:34:32.912Z,2.80
2023-03-08T10:37:21.359Z,2.97
2023-03-08T10:40:10.105Z,3.07
2023-03-08T10:43:00.951Z,3.07
2023-03-08T10:45:56.794Z,2.97
2023-03-08T10:48:42.303Z,2.90
2023-03-08T10:51:29.191Z,2.80
2023-03-08T10:54:15.548Z,2.70
2023-03-08T10:57:02.806Z,3.00
2023-03-08T10:59:50.203Z,2.90
2023-03-08T11:02:35.883Z,2.80
2023-03-08T11:05:24.034Z,2.70
2023-03-08T11:08:17.817Z,2.80
2023-03-08T11:11:09.560Z,2.70
2023-03-08T11:13:55.362Z,2.90
2023-03-08T11:16:53.010Z,2.83
2023-03-08T11:19:51.800Z,2.83
2023-03-08T11:22:49.049Z,2.83
2023-03-08T11:25:44.379Z,2.87
2023-03-08T11:28:47.610Z,2.90
2023-03-08T11:31:53.781Z,2.90
2023-03-08T11:34:50.381Z,2.80
2023-03-08T11:37:50.262Z,2.93
2023-03-08T11:40:59.230Z,3.00
2023-03-08T11:44:06.215Z,3.03
2023-03-08T11:46:51.277Z,3.10
2023-03-08T11:49:46.087Z,3.20
2023-03-08T11:53:04.162Z,2.90
2023-03-08T11:56:30.931Z,3.13
2023-03-08T11:59:44.484Z,3.50
2023-03-08T12:02:35.720Z,3.20
2023-03-08T12:05:30.444Z,3.63
2023-03-08T12:08:25.251Z,3.70
2023-03-08T12:11:22.231Z,3.00
2023-03-08T12:14:17.153Z,3.20
2023-03-08T12:17:12.055Z,3.60
2023-03-08T12:19:58.210Z,3.63
2023-03-08T12:23:04.216Z,3.33
2023-03-08T12:25:58.305Z,4.20
2023-03-08T12:29:02.081Z,3.70
2023-03-08T12:31:48.789Z,4.10
2023-03-08T12:34:39.933Z,4.17
2023-03-08T12:37:29.986Z,3.57
2023-03-08T12:40:35.003Z,3.80
2023-03-08T12:43:20.322Z,4.40
2023-03-08T12:46:08.680Z,3.90
2023-03-08T12:48:54.285Z,3.87
2023-03-08T12:51:41.488Z,4.37
2023-03-08T12:54:30.361Z,3.90
2023-03-08T12:57:22.321Z,4.40
2023-03-08T13:00:32.271Z,4.13
2023-03-08T13:03:35.908Z,4.13
2023-03-08T13:06:24.460Z,4.20
2023-03-08T13:09:18.875Z,4.27
2023-03-08T13:12:16.861Z,4.20
2023-03-08T13:15:28.620Z,4.50
2023-03-08T13:18:20.383Z,4.17
2023-03-08T13:21:28.607Z,4.47
2023-03-08T13:24:24.194Z,4.60
2023-03-08T13:27:15.628Z,4.30
2023-03-08T13:30:37.532Z,4.50
2023-03-08T13:33:25.887Z,4.60
2023-03-08T13:36:19.241Z,4.20
2023-03-08T13:39:07.824Z,4.00
2023-03-08T13:41:53.823Z,4.30
2023-03-08T13:44:39.235Z,4.03
2023-03-08T13:47:26.990Z,4.37
2023-03-08T13:50:29.459Z,4.00
2023-03-08T13:53:20.046Z,5.13
2023-03-08T13:56:06.391Z,4.73
2023-03-08T13:58:54.788Z,5.50
2023-03-08T14:01:47.282Z,5.50
2023-03-08T14:04:34.846Z,5.37
2023-03-08T14:07:28.695Z,5.30
2023-03-08T14:10:14.667Z,4.77
2023-03-08T14:13:00.329Z,4.60
2023-03-08T14:15:52.494Z,4.60
2023-03-08T14:18:42.374Z,4.80
2023-03-08T14:21:29.954Z,5.03
2023-03-08T14:24:21.483Z,5.30
2023-03-08T14:27:16.328Z,4.70
2023-03-08T14:30:10.326Z,4.67
2023-03-08T14:32:59.704Z,4.53
2023-03-08T14:35:53.914Z,4.90
2023-03-08T14:38:39.412Z,4.60
2023-03-08T14:41:34.575Z,4.70
2023-03-08T14:44:26.410Z,4.33
2023-03-08T14:47:35.708Z,4.50
2023-03-08T14:50:31.468Z,4.43
2023-03-08T14:53:35.801Z,5.00
2023-03-08T14:56:21.247Z,5.77
2023-03-08T14:59:08.047Z,5.43
2023-03-08T15:01:54.385Z,5.00
2023-03-08T15:04:40.618Z,5.20
2023-03-08T15:07:31.672Z,5.00
2023-03-08T15:10:43.902Z,5.13
2023-03-08T15:13:29.003Z,5.50
2023-03-08T15:16:14.828Z,4.73
2023-03-08T15:19:00.282Z,5.27
2023-03-08T15:21:45.813Z,5.10
2023-03-08T15:24:31.897Z,4.97
2023-03-08T15:27:17.234Z,4.90
2023-03-08T15:30:03.215Z,4.83
2023-03-08T15:32:49.822Z,4.53
2023-03-08T15:35:34.878Z,4.67
2023-03-08T15:38:20.623Z,4.80
2023-03-08T15:41:06.100Z,4.80
2023-03-08T15:43:51.286Z,4.53
2023-03-08T15:46:36.997Z,4.73
2023-03-08T15:49:22.330Z,4.97
2023-03-08T15:52:08.894Z,5.43
2023-03-08T15:54:57.022Z,4.60
2023-03-08T15:57:42.470Z,4.60
2023-03-08T16:00:28.368Z,5.77
2023-03-08T16:03:13.978Z,5.93
2023-03-08T16:05:59.426Z,5.87
2023-03-08T16:08:45.482Z,5.33
2023-03-08T16:11:32.883Z,5.10
2023-03-08T16:14:18.364Z,5.10
2023-03-08T16:17:04.582Z,4.97
2023-03-08T16:19:49.723Z,5.40
2023-03-08T16:22:35.091Z,5.10
2023-03-08T16:25:20.769Z,5.13
2023-03-08T16:28:06.205Z,5.23
2023-03-08T16:30:51.805Z,5.30
2023-03-08T16:33:36.932Z,5.20
2023-03-08T16:36:25.119Z,5.00
2023-03-08T16:39:10.887Z,4.87
2023-03-08T16:41:56.098Z,4.50
2023-03-08T16:44:47.537Z,4.40
2023-03-08T16:47:33.373Z,4.20
2023-03-08T16:50:19.037Z,4.10
2023-03-08T16:53:05.092Z,4.33
2023-03-08T16:55:50.437Z,4.20
2023-03-08T16:58:38.028Z,4.07
2023-03-08T17:01:24.084Z,3.80
2023-03-08T17:04:12.336Z,3.87
2023-03-08T17:06:57.648Z,4.00
2023-03-08T17:09:43.660Z,4.30
2023-03-08T17:12:28.965Z,4.30
2023-03-08T17:15:14.128Z,4.70
2023-03-08T17:22:07.775Z,4.47
2023-03-08T17:24:54.792Z,5.00
2023-03-08T17:27:41.656Z,4.80
2023-03-08T17:30:27.080Z,5.27
2023-03-08T17:33:12.702Z,4.90
2023-03-08T17:35:58.184Z,5.73
2023-03-08T17:38:43.329Z,6.00
2023-03-08T17:41:28.913Z,6.30
2023-03-08T17:44:14.655Z,6.10
2023-03-08T17:47:00.811Z,7.50
2023-03-08T17:49:46.114Z,6.87
2023-03-08T17:52:31.540Z,7.60
2023-03-08T17:55:17.261Z,6.50
2023-03-08T17:58:02.268Z,7.03
2023-03-08T18:00:47.747Z,6.60
2023-03-08T18:03:33.910Z,6.70
2023-03-08T18:06:25.219Z,6.87
2023-03-08T18:09:14.099Z,6.90
2023-03-08T18:11:59.628Z,8.80
2023-03-08T18:14:44.838Z,9.80
2023-03-08T18:17:30.022Z,9.80
2023-03-08T18:20:15.500Z,10.07
2023-03-08T18:23:01.041Z,9.93
2023-03-08T18:25:46.523Z,9.70
2023-03-08T18:28:32.009Z,8.83
2023-03-08T18:31:20.683Z,9.50
2023-03-08T18:34:07.359Z,8.93
2023-03-08T18:36:54.445Z,8.87
2023-03-08T18:39:40.953Z,9.20
2023-03-08T18:42:26.843Z,9.00
2023-03-08T18:45:12.463Z,8.87
2023-03-08T18:47:58.036Z,9.47
2023-03-08T18:50:43.308Z,8.57
2023-03-08T18:53:28.707Z,8.70
2023-03-08T18:56:14.421Z,9.33
2023-03-08T18:59:01.716Z,9.43
2023-03-08T19:01:47.582Z,9.87
2023-03-08T19:04:39.095Z,9.70
2023-03-08T19:07:26.661Z,9.77
2023-03-08T19:10:12.074Z,8.50
2023-03-08T19:12:57.279Z,9.27
2023-03-08T19:15:45.854Z,10.67
2023-03-08T19:18:31.177Z,10.60
2023-03-08T19:21:22.667Z,9.70
2023-03-08T19:24:12.570Z,9.67
2023-03-08T19:26:59.708Z,10.23
2023-03-08T19:29:45.640Z,9.67
2023-03-08T19:32:31.289Z,9.17
2023-03-08T19:35:16.771Z,8.67
2023-03-08T19:38:02.165Z,8.73
2023-03-08T19:40:47.574Z,8.30
2023-03-08T19:43:32.873Z,8.50
2023-03-08T19:46:18.495Z,8.50
2023-03-08T19:49:05.694Z,7.40
2023-03-08T19:51:53.926Z,8.13
2023-03-08T19:54:39.484Z,7.77
2023-03-08T19:57:26.178Z,7.93
2023-03-08T20:00:12.000Z,8.23
2023-03-08T20:02:57.356Z,7.50
2023-03-08T20:05:45.857Z,8.73
2023-03-08T20:08:31.387Z,8.17
2023-03-08T20:11:16.878Z,8.50
2023-03-08T20:14:03.206Z,8.10
2023-03-08T20:16:50.469Z,7.93
2023-03-08T20:19:35.885Z,7.37
2023-03-08T20:22:21.322Z,7.03
2023-03-08T20:25:07.650Z,6.63
2023-03-08T20:27:53.232Z,6.70
2023-03-08T20:30:39.538Z,6.50
2023-03-08T20:33:24.934Z,6.67
2023-03-08T20:36:10.469Z,6.20
2023-03-08T20:38:57.598Z,6.20
2023-03-08T20:41:43.160Z,6.57
2023-03-08T20:44:28.162Z,6.80
2023-03-08T20:47:13.870Z,6.97
2023-03-08T20:49:59.735Z,6.50
2023-03-08T20:52:46.353Z,8.13
2023-03-08T20:55:33.002Z,9.10
2023-03-08T20:58:18.624Z,8.73
2023-03-08T21:01:19.049Z,7.53
2023-03-08T21:04:05.615Z,8.00
2023-03-08T21:06:51.109Z,8.00
2023-03-08T21:09:36.438Z,7.23
2023-03-08T21:12:21.773Z,7.33
2023-03-08T21:15:07.721Z,7.17
2023-03-08T21:17:53.037Z,7.90
2023-03-08T21:20:38.597Z,7.77
2023-03-08T21:23:23.891Z,7.63
2023-03-08T21:26:09.223Z,8.10
2023-03-08T21:29:04.532Z,8.53
2023-03-08T21:31:52.295Z,8.50
2023-03-08T21:34:39.478Z,9.03
2023-03-08T21:37:24.760Z,7.83
2023-03-08T21:40:10.868Z,7.97
2023-03-08T21:42:56.117Z,8.10
2023-03-08T21:45:42.409Z,8.77
2023-03-08T21:48:27.625Z,8.40
2023-03-08T21:51:16.814Z,7.90
2023-03-08T21:54:02.367Z,9.20
2023-03-08T21:56:47.759Z,8.53
2023-03-08T21:59:33.318Z,7.97
2023-03-08T22:02:18.519Z,7.67
2023-03-08T22:05:04.314Z,8.03
2023-03-08T22:07:49.716Z,7.20
2023-03-08T22:10:34.800Z,7.40
2023-03-08T22:13:20.773Z,7.37
2023-03-08T22:16:06.524Z,7.80
2023-03-08T22:18:53.703Z,7.47
2023-03-08T22:21:39.371Z,8.10
2023-03-08T22:24:24.945Z,8.10
2023-03-08T22:27:10.449Z,7.73
2023-03-08T22:29:55.919Z,8.07
2023-03-08T22:32:41.556Z,7.83
2023-03-08T22:35:26.911Z,8.20
2023-03-08T22:38:12.011Z,7.67
2023-03-08T22:40:57.189Z,7.70
2023-03-08T22:43:43.469Z,7.70
2023-03-08T22:46:28.884Z,7.47
2023-03-08T22:49:16.960Z,8.47
2023-03-08T22:52:02.727Z,8.03
2023-03-08T22:54:48.067Z,8.73
2023-03-08T22:57:36.780Z,8.00
2023-03-08T23:00:22.361Z,8.33
2023-03-08T23:03:07.705Z,8.50
2023-03-08T23:05:53.614Z,9.23
2023-03-08T23:08:38.702Z,8.43
2023-03-08T23:11:24.506Z,8.27
2023-03-08T23:14:11.498Z,8.77
2023-03-08T23:16:57.315Z,9.50
2023-03-08T23:19:44.187Z,9.63
2023-03-08T23:22:29.688Z,8.33
2023-03-08T23:25:15.070Z,8.30
2023-03-08T23:28:00.527Z,8.27
2023-03-08T23:30:45.957Z,8.33
2023-03-08T23:33:31.473Z,8.47
2023-03-08T23:36:20.408Z,9.03
2023-03-08T23:39:05.502Z,9.20
2023-03-08T23:41:50.805Z,7.57
2023-03-08T23:44:37.922Z,9.13
2023-03-08T23:47:23.082Z,8.70
2023-03-08T23:50:09.195Z,8.27
2023-03-08T23:52:54.498Z,7.30
2023-03-08T23:55:41.008Z,8.07
2023-03-08T23:58:26.406Z,8.00
